sensor_id;sensor_type;location;lat;lon;timestamp;temperature;humidity
4699;DHT22;33708;49.466;11.176;2023-02-28T00:02:20;-4.20;1.00
4699;DHT22;33708;49.466;11.176;2023-02-28T00:04:46;-4.50;1.00
4699;DHT22;33708;49.466;11.176;2023-02-28T00:07:18;-4.20;1.00
4699;DHT22;33708;49.466;11.176;2023-02-28T00:09:45;-4.60;1.00
4699;DHT22;33708;49.466;11.176;2023-02-28T00:12:10;-4.60;1.00
4699;DHT22;33708;49.466;11.176;2023-02-28T00:14:39;-4.50;1.00
4699;DHT22;33708;49.466;11.176;2023-02-28T00:17:05;-4.60;1.00
4699;DHT22;33708;49.466;11.176;2023-02-28T00:19:30;-4.50;1.00
4699;DHT22;33708;49.466;11.176;2023-02-28T00:21:56;-4.50;1.00
4699;DHT22;33708;49.466;11.176;2023-02-28T00:24:21;-4.40;1.00
4699;DHT22;33708;49.466;11.176;2023-02-28T00:26:47;-4.40;1.00
4699;DHT22;33708;49.466;11.176;2023-02-28T00:29:12;-4.40;1.00
4699;DHT22;33708;49.466;11.176;2023-02-28T00:31:38;-4.40;1.00
4699;DHT22;33708;49.466;11.176;2023-02-28T00:34:03;-4.30;1.00
4699;DHT22;33708;49.466;11.176;2023-02-28T00:36:29;-4.20;1.00
4699;DHT22;33708;49.466;11.176;2023-02-28T00:38:55;-4.20;1.00
4699;DHT22;33708;49.466;11.176;2023-02-28T00:41:20;-4.20;1.00
4699;DHT22;33708;49.466;11.176;2023-02-28T00:43:46;-4.30;1.00
4699;DHT22;33708;49.466;11.176;2023-02-28T00:46:11;-4.30;1.00
4699;DHT22;33708;49.466;11.176;2023-02-28T00:48:37;-4.30;1.00
4699;DHT22;33708;49.466;11.176;2023-02-28T00:51:03;-4.30;1.00
4699;DHT22;33708;49.466;11.176;2023-02-28T00:53:29;-4.30;1.00
4699;DHT22;33708;49.466;11.176;2023-02-28T00:55:55;-4.30;1.00
4699;DHT22;33708;49.466;11.176;2023-02-28T00:58:21;-4.20;1.00
4699;DHT22;33708;49.466;11.176;2023-02-28T01:00:47;-4.10;1.00
4699;DHT22;33708;49.466;11.176;2023-02-28T01:03:17;-4.20;1.00
4699;DHT22;33708;49.466;11.176;2023-02-28T01:05:43;-4.10;1.00
4699;DHT22;33708;49.466;11.176;2023-02-28T01:08:08;-4.00;1.00
4699;DHT22;33708;49.466;11.176;2023-02-28T01:10:34;-3.90;1.00
4699;DHT22;33708;49.466;11.176;2023-02-28T01:13:02;-3.80;1.00
4699;DHT22;33708;49.466;11.176;2023-02-28T01:15:28;-3.70;1.00
4699;DHT22;33708;49.466;11.176;2023-02-28T01:17:54;-3.60;1.00
4699;DHT22;33708;49.466;11.176;2023-02-28T01:20:19;-3.60;1.00
4699;DHT22;33708;49.466;11.176;2023-02-28T01:22:46;-3.50;1.00
4699;DHT22;33708;49.466;11.176;2023-02-28T01:25:12;-3.50;1.00
4699;DHT22;33708;49.466;11.176;2023-02-28T01:27:38;-3.50;1.00
4699;DHT22;33708;49.466;11.176;2023-02-28T01:30:06;-3.40;1.00
4699;DHT22;33708;49.466;11.176;2023-02-28T01:32:35;-3.40;1.00
4699;DHT22;33708;49.466;11.176;2023-02-28T01:35:06;-3.50;1.00
4699;DHT22;33708;49.466;11.176;2023-02-28T01:37:35;-3.10;1.00
4699;DHT22;33708;49.466;11.176;2023-02-28T01:40:05;-3.20;1.00
4699;DHT22;33708;49.466;11.176;2023-02-28T01:42:33;-3.20;1.00
4699;DHT22;33708;49.466;11.176;2023-02-28T01:45:25;-3.10;1.00
4699;DHT22;33708;49.466;11.176;2023-02-28T01:47:54;-3.20;1.00
4699;DHT22;33708;49.466;11.176;2023-02-28T01:50:25;-3.10;1.00
4699;DHT22;33708;49.466;11.176;2023-02-28T01:52:56;-3.10;1.00
4699;DHT22;33708;49.466;11.176;2023-02-28T01:55:24;-3.00;1.00
4699;DHT22;33708;49.466;11.176;2023-02-28T01:58:01;-3.10;1.00
4699;DHT22;33708;49.466;11.176;2023-02-28T02:00:29;-3.10;1.00
4699;DHT22;33708;49.466;11.176;2023-02-28T02:03:00;-2.70;1.00
4699;DHT22;33708;49.466;11.176;2023-02-28T02:05:30;-2.90;1.00
4699;DHT22;33708;49.466;11.176;2023-02-28T02:08:01;-3.10;1.00
4699;DHT22;33708;49.466;11.176;2023-02-28T02:13:08;-3.10;1.00
4699;DHT22;33708;49.466;11.176;2023-02-28T02:18:22;-3.10;1.00
4699;DHT22;33708;49.466;11.176;2023-02-28T02:35:05;-3.00;1.00
4699;DHT22;33708;49.466;11.176;2023-02-28T02:40:21;-2.80;1.00
4699;DHT22;33708;49.466;11.176;2023-02-28T02:43:07;-2.80;1.00
4699;DHT22;33708;49.466;11.176;2023-02-28T02:45:44;-2.90;1.00
4699;DHT22;33708;49.466;11.176;2023-02-28T02:48:15;-3.00;1.00
4699;DHT22;33708;49.466;11.176;2023-02-28T02:50:54;-3.00;1.00
4699;DHT22;33708;49.466;11.176;2023-02-28T02:53:26;-2.90;1.00
4699;DHT22;33708;49.466;11.176;2023-02-28T02:55:54;-2.90;1.00
4699;DHT22;33708;49.466;11.176;2023-02-28T02:58:25;-3.00;1.00
4699;DHT22;33708;49.466;11.176;2023-02-28T03:00:58;-3.10;1.00
4699;DHT22;33708;49.466;11.176;2023-02-28T03:03:25;-3.00;1.00
4699;DHT22;33708;49.466;11.176;2023-02-28T03:05:56;-3.00;1.00
4699;DHT22;33708;49.466;11.176;2023-02-28T03:08:22;-3.00;1.00
4699;DHT22;33708;49.466;11.176;2023-02-28T03:10:56;-2.90;1.00
4699;DHT22;33708;49.466;11.176;2023-02-28T03:13:31;-3.00;1.00
4699;DHT22;33708;49.466;11.176;2023-02-28T03:19:01;-3.10;1.00
4699;DHT22;33708;49.466;11.176;2023-02-28T03:21:34;-3.10;1.00
4699;DHT22;33708;49.466;11.176;2023-02-28T03:24:10;-3.10;1.00
4699;DHT22;33708;49.466;11.176;2023-02-28T03:26:42;-3.10;1.00
4699;DHT22;33708;49.466;11.176;2023-02-28T03:29:28;-3.10;1.00
4699;DHT22;33708;49.466;11.176;2023-02-28T03:32:18;-3.00;1.00
4699;DHT22;33708;49.466;11.176;2023-02-28T03:34:58;-3.10;1.00
4699;DHT22;33708;49.466;11.176;2023-02-28T03:37:26;-2.70;1.00
4699;DHT22;33708;49.466;11.176;2023-02-28T03:39:59;-3.00;1.00
4699;DHT22;33708;49.466;11.176;2023-02-28T03:42:30;-3.10;1.00
4699;DHT22;33708;49.466;11.176;2023-02-28T03:45:08;-3.10;1.00
4699;DHT22;33708;49.466;11.176;2023-02-28T03:47:41;-3.20;1.00
4699;DHT22;33708;49.466;11.176;2023-02-28T03:50:19;-3.10;1.00
4699;DHT22;33708;49.466;11.176;2023-02-28T03:53:10;-3.20;1.00
4699;DHT22;33708;49.466;11.176;2023-02-28T03:55:49;-3.20;1.00
4699;DHT22;33708;49.466;11.176;2023-02-28T03:58:27;-3.20;1.00
4699;DHT22;33708;49.466;11.176;2023-02-28T04:01:05;-3.20;1.00
4699;DHT22;33708;49.466;11.176;2023-02-28T04:03:35;-3.20;1.00
4699;DHT22;33708;49.466;11.176;2023-02-28T04:06:01;-3.20;1.00
4699;DHT22;33708;49.466;11.176;2023-02-28T04:08:27;-3.20;1.00
4699;DHT22;33708;49.466;11.176;2023-02-28T04:11:07;-3.30;1.00
4699;DHT22;33708;49.466;11.176;2023-02-28T04:13:37;-3.30;1.00
4699;DHT22;33708;49.466;11.176;2023-02-28T04:16:07;-3.20;1.00
4699;DHT22;33708;49.466;11.176;2023-02-28T04:18:38;-3.30;1.00
4699;DHT22;33708;49.466;11.176;2023-02-28T04:21:04;-3.40;1.00
4699;DHT22;33708;49.466;11.176;2023-02-28T04:23:30;-3.30;1.00
4699;DHT22;33708;49.466;11.176;2023-02-28T04:25:56;-3.30;1.00
4699;DHT22;33708;49.466;11.176;2023-02-28T04:28:21;-3.30;1.00
4699;DHT22;33708;49.466;11.176;2023-02-28T04:30:47;-3.40;1.00
4699;DHT22;33708;49.466;11.176;2023-02-28T04:33:13;-3.10;1.00
4699;DHT22;33708;49.466;11.176;2023-02-28T04:35:38;-3.40;1.00
4699;DHT22;33708;49.466;11.176;2023-02-28T04:38:04;-3.30;1.00
4699;DHT22;33708;49.466;11.176;2023-02-28T04:40:29;-3.30;1.00
4699;DHT22;33708;49.466;11.176;2023-02-28T04:42:55;-3.30;1.00
4699;DHT22;33708;49.466;11.176;2023-02-28T04:45:21;-3.30;1.00
4699;DHT22;33708;49.466;11.176;2023-02-28T04:47:46;-3.30;1.00
4699;DHT22;33708;49.466;11.176;2023-02-28T04:50:12;-3.20;1.00
4699;DHT22;33708;49.466;11.176;2023-02-28T04:52:37;-3.30;1.00
4699;DHT22;33708;49.466;11.176;2023-02-28T04:55:03;-3.20;1.00
4699;DHT22;33708;49.466;11.176;2023-02-28T04:57:29;-3.20;1.00
4699;DHT22;33708;49.466;11.176;2023-02-28T04:59:55;-3.20;1.00
4699;DHT22;33708;49.466;11.176;2023-02-28T05:02:20;-3.20;1.00
4699;DHT22;33708;49.466;11.176;2023-02-28T05:04:46;-3.20;1.00
4699;DHT22;33708;49.466;11.176;2023-02-28T05:07:12;-3.20;1.00
4699;DHT22;33708;49.466;11.176;2023-02-28T05:09:37;-3.20;1.00
4699;DHT22;33708;49.466;11.176;2023-02-28T05:12:03;-3.20;1.00
4699;DHT22;33708;49.466;11.176;2023-02-28T05:14:28;-3.20;1.00
4699;DHT22;33708;49.466;11.176;2023-02-28T05:16:54;-3.30;1.00
4699;DHT22;33708;49.466;11.176;2023-02-28T05:19:20;-3.30;1.00
4699;DHT22;33708;49.466;11.176;2023-02-28T05:21:52;-3.30;1.00
4699;DHT22;33708;49.466;11.176;2023-02-28T05:24:18;-3.40;1.00
4699;DHT22;33708;49.466;11.176;2023-02-28T05:26:52;-3.30;1.00
4699;DHT22;33708;49.466;11.176;2023-02-28T05:29:18;-3.30;1.00
4699;DHT22;33708;49.466;11.176;2023-02-28T05:31:44;-3.10;1.00
4699;DHT22;33708;49.466;11.176;2023-02-28T05:34:10;-3.50;1.00
4699;DHT22;33708;49.466;11.176;2023-02-28T05:36:38;-3.50;1.00
4699;DHT22;33708;49.466;11.176;2023-02-28T05:39:06;-3.60;1.00
4699;DHT22;33708;49.466;11.176;2023-02-28T05:41:32;-3.70;1.00
4699;DHT22;33708;49.466;11.176;2023-02-28T05:43:58;-3.70;1.00
4699;DHT22;33708;49.466;11.176;2023-02-28T05:46:25;-3.80;1.00
4699;DHT22;33708;49.466;11.176;2023-02-28T05:48:50;-3.80;1.00
4699;DHT22;33708;49.466;11.176;2023-02-28T05:51:16;-3.80;1.00
4699;DHT22;33708;49.466;11.176;2023-02-28T05:53:42;-3.80;1.00
4699;DHT22;33708;49.466;11.176;2023-02-28T05:56:08;-3.70;1.00
4699;DHT22;33708;49.466;11.176;2023-02-28T05:58:34;-3.70;1.00
4699;DHT22;33708;49.466;11.176;2023-02-28T06:01:00;-3.70;1.00
4699;DHT22;33708;49.466;11.176;2023-02-28T06:03:43;-3.70;1.00
4699;DHT22;33708;49.466;11.176;2023-02-28T06:06:09;-3.70;1.00
4699;DHT22;33708;49.466;11.176;2023-02-28T06:08:35;-3.70;1.00
4699;DHT22;33708;49.466;11.176;2023-02-28T06:11:03;-3.70;1.00
4699;DHT22;33708;49.466;11.176;2023-02-28T06:13:29;-3.70;1.00
4699;DHT22;33708;49.466;11.176;2023-02-28T06:15:54;-3.60;1.00
4699;DHT22;33708;49.466;11.176;2023-02-28T06:18:20;-3.50;1.00
4699;DHT22;33708;49.466;11.176;2023-02-28T06:20:52;-3.60;1.00
4699;DHT22;33708;49.466;11.176;2023-02-28T06:23:20;-3.50;1.00
4699;DHT22;33708;49.466;11.176;2023-02-28T06:25:46;-3.40;1.00
4699;DHT22;33708;49.466;11.176;2023-02-28T06:28:12;-3.20;1.00
4699;DHT22;33708;49.466;11.176;2023-02-28T06:30:38;-2.40;1.00
4699;DHT22;33708;49.466;11.176;2023-02-28T06:33:06;-2.30;1.00
4699;DHT22;33708;49.466;11.176;2023-02-28T06:35:31;-2.50;1.00
4699;DHT22;33708;49.466;11.176;2023-02-28T06:37:57;-2.70;1.00
4699;DHT22;33708;49.466;11.176;2023-02-28T06:40:23;-2.00;1.00
4699;DHT22;33708;49.466;11.176;2023-02-28T06:42:51;-1.30;1.00
4699;DHT22;33708;49.466;11.176;2023-02-28T06:45:17;-0.10;1.00
4699;DHT22;33708;49.466;11.176;2023-02-28T06:47:43;1.10;1.00
4699;DHT22;33708;49.466;11.176;2023-02-28T06:50:11;1.50;1.00
4699;DHT22;33708;49.466;11.176;2023-02-28T06:52:37;2.50;1.00
4699;DHT22;33708;49.466;11.176;2023-02-28T06:55:07;3.80;1.00
4699;DHT22;33708;49.466;11.176;2023-02-28T06:57:36;4.20;1.00
4699;DHT22;33708;49.466;11.176;2023-02-28T07:00:06;4.20;1.00
4699;DHT22;33708;49.466;11.176;2023-02-28T07:02:33;4.40;1.00
4699;DHT22;33708;49.466;11.176;2023-02-28T07:04:58;5.10;1.00
4699;DHT22;33708;49.466;11.176;2023-02-28T07:07:24;6.00;1.00
4699;DHT22;33708;49.466;11.176;2023-02-28T07:09:50;6.20;1.00
4699;DHT22;33708;49.466;11.176;2023-02-28T07:12:16;6.50;1.00
4699;DHT22;33708;49.466;11.176;2023-02-28T07:14:56;6.30;1.00
4699;DHT22;33708;49.466;11.176;2023-02-28T07:17:25;5.10;1.00
4699;DHT22;33708;49.466;11.176;2023-02-28T07:19:50;5.90;1.00
4699;DHT22;33708;49.466;11.176;2023-02-28T07:22:16;6.30;1.00
4699;DHT22;33708;49.466;11.176;2023-02-28T07:24:42;5.70;1.00
4699;DHT22;33708;49.466;11.176;2023-02-28T07:27:07;5.90;1.00
4699;DHT22;33708;49.466;11.176;2023-02-28T07:29:33;6.30;1.00
4699;DHT22;33708;49.466;11.176;2023-02-28T07:31:58;5.10;1.00
4699;DHT22;33708;49.466;11.176;2023-02-28T07:34:24;5.80;1.00
4699;DHT22;33708;49.466;11.176;2023-02-28T07:36:53;5.50;1.00
4699;DHT22;33708;49.466;11.176;2023-02-28T07:39:19;6.80;1.00
4699;DHT22;33708;49.466;11.176;2023-02-28T07:41:46;7.70;1.00
4699;DHT22;33708;49.466;11.176;2023-02-28T07:44:11;7.40;1.00
4699;DHT22;33708;49.466;11.176;2023-02-28T07:46:37;8.40;1.00
4699;DHT22;33708;49.466;11.176;2023-02-28T07:51:48;7.40;1.00
4699;DHT22;33708;49.466;11.176;2023-02-28T07:54:17;7.30;1.00
4699;DHT22;33708;49.466;11.176;2023-02-28T07:56:42;8.30;1.00
4699;DHT22;33708;49.466;11.176;2023-02-28T07:59:08;7.70;1.00
4699;DHT22;33708;49.466;11.176;2023-02-28T08:01:34;6.90;1.00
4699;DHT22;33708;49.466;11.176;2023-02-28T08:04:00;8.10;1.00
4699;DHT22;33708;49.466;11.176;2023-02-28T08:06:26;7.30;1.00
4699;DHT22;33708;49.466;11.176;2023-02-28T08:08:52;5.30;1.00
4699;DHT22;33708;49.466;11.176;2023-02-28T08:11:18;5.60;1.00
4699;DHT22;33708;49.466;11.176;2023-02-28T08:13:45;7.00;1.00
4699;DHT22;33708;49.466;11.176;2023-02-28T08:16:14;7.40;1.00
4699;DHT22;33708;49.466;11.176;2023-02-28T08:18:43;7.80;1.00
4699;DHT22;33708;49.466;11.176;2023-02-28T08:21:10;6.40;1.00
4699;DHT22;33708;49.466;11.176;2023-02-28T08:23:38;6.50;1.00
4699;DHT22;33708;49.466;11.176;2023-02-28T08:26:04;6.90;1.00
4699;DHT22;33708;49.466;11.176;2023-02-28T08:28:30;7.00;1.00
4699;DHT22;33708;49.466;11.176;2023-02-28T08:30:55;6.30;1.00
4699;DHT22;33708;49.466;11.176;2023-02-28T08:33:22;6.80;1.00
4699;DHT22;33708;49.466;11.176;2023-02-28T08:35:48;7.50;1.00
4699;DHT22;33708;49.466;11.176;2023-02-28T08:38:13;7.50;1.00
4699;DHT22;33708;49.466;11.176;2023-02-28T08:40:39;8.00;1.00
4699;DHT22;33708;49.466;11.176;2023-02-28T08:43:05;7.70;1.00
4699;DHT22;33708;49.466;11.176;2023-02-28T08:45:31;8.40;1.00
4699;DHT22;33708;49.466;11.176;2023-02-28T08:47:59;9.10;1.00
4699;DHT22;33708;49.466;11.176;2023-02-28T08:50:25;8.60;1.00
4699;DHT22;33708;49.466;11.176;2023-02-28T08:52:51;8.00;1.00
4699;DHT22;33708;49.466;11.176;2023-02-28T08:55:16;7.50;1.00
4699;DHT22;33708;49.466;11.176;2023-02-28T08:57:42;8.00;1.00
4699;DHT22;33708;49.466;11.176;2023-02-28T09:00:08;7.20;1.00
4699;DHT22;33708;49.466;11.176;2023-02-28T09:02:34;5.90;1.00
4699;DHT22;33708;49.466;11.176;2023-02-28T09:04:59;6.00;1.00
4699;DHT22;33708;49.466;11.176;2023-02-28T09:07:25;6.10;1.00
4699;DHT22;33708;49.466;11.176;2023-02-28T09:09:51;5.80;1.00
4699;DHT22;33708;49.466;11.176;2023-02-28T09:12:26;5.50;1.00
4699;DHT22;33708;49.466;11.176;2023-02-28T09:14:52;5.10;1.00
4699;DHT22;33708;49.466;11.176;2023-02-28T09:17:19;4.20;1.00
4699;DHT22;33708;49.466;11.176;2023-02-28T09:19:45;4.30;1.00
4699;DHT22;33708;49.466;11.176;2023-02-28T09:22:12;3.90;1.00
4699;DHT22;33708;49.466;11.176;2023-02-28T09:24:38;5.40;1.00
4699;DHT22;33708;49.466;11.176;2023-02-28T09:27:04;5.40;1.00
4699;DHT22;33708;49.466;11.176;2023-02-28T09:29:31;6.10;1.00
4699;DHT22;33708;49.466;11.176;2023-02-28T09:31:56;5.50;1.00
4699;DHT22;33708;49.466;11.176;2023-02-28T09:34:24;4.90;1.00
4699;DHT22;33708;49.466;11.176;2023-02-28T09:36:50;3.70;1.00
4699;DHT22;33708;49.466;11.176;2023-02-28T09:39:18;3.00;1.00
4699;DHT22;33708;49.466;11.176;2023-02-28T09:41:45;3.90;1.00
4699;DHT22;33708;49.466;11.176;2023-02-28T09:44:42;3.40;1.00
4699;DHT22;33708;49.466;11.176;2023-02-28T09:49:42;3.20;1.00
4699;DHT22;33708;49.466;11.176;2023-02-28T09:52:19;3.40;1.00
4699;DHT22;33708;49.466;11.176;2023-02-28T09:54:45;3.00;1.00
4699;DHT22;33708;49.466;11.176;2023-02-28T10:05:35;3.30;1.00
4699;DHT22;33708;49.466;11.176;2023-02-28T10:08:18;2.90;1.00
4699;DHT22;33708;49.466;11.176;2023-02-28T10:10:51;2.80;1.00
4699;DHT22;33708;49.466;11.176;2023-02-28T10:13:46;2.60;1.00
4699;DHT22;33708;49.466;11.176;2023-02-28T10:16:38;2.80;1.00
4699;DHT22;33708;49.466;11.176;2023-02-28T10:19:26;2.80;1.00
4699;DHT22;33708;49.466;11.176;2023-02-28T10:24:46;2.50;1.00
4699;DHT22;33708;49.466;11.176;2023-02-28T10:29:53;2.90;1.00
4699;DHT22;33708;49.466;11.176;2023-02-28T10:32:25;3.10;1.00
4699;DHT22;33708;49.466;11.176;2023-02-28T10:37:38;3.00;1.00
4699;DHT22;33708;49.466;11.176;2023-02-28T10:40:29;3.00;1.00
4699;DHT22;33708;49.466;11.176;2023-02-28T10:45:38;3.10;1.00
4699;DHT22;33708;49.466;11.176;2023-02-28T10:48:26;3.10;1.00
4699;DHT22;33708;49.466;11.176;2023-02-28T10:50:53;3.50;1.00
4699;DHT22;33708;49.466;11.176;2023-02-28T11:01:16;3.10;1.00
4699;DHT22;33708;49.466;11.176;2023-02-28T11:03:43;3.30;1.00
4699;DHT22;33708;49.466;11.176;2023-02-28T11:06:21;3.50;1.00
4699;DHT22;33708;49.466;11.176;2023-02-28T11:08:56;3.30;1.00
4699;DHT22;33708;49.466;11.176;2023-02-28T11:11:24;3.50;1.00
4699;DHT22;33708;49.466;11.176;2023-02-28T11:13:56;3.50;1.00
4699;DHT22;33708;49.466;11.176;2023-02-28T11:16:33;3.40;1.00
4699;DHT22;33708;49.466;11.176;2023-02-28T11:19:02;3.60;1.00
4699;DHT22;33708;49.466;11.176;2023-02-28T11:21:32;3.80;1.00
4699;DHT22;33708;49.466;11.176;2023-02-28T11:24:35;3.50;1.00
4699;DHT22;33708;49.466;11.176;2023-02-28T11:27:05;3.80;1.00
4699;DHT22;33708;49.466;11.176;2023-02-28T11:29:47;4.00;1.00
4699;DHT22;33708;49.466;11.176;2023-02-28T11:32:23;4.60;1.00
4699;DHT22;33708;49.466;11.176;2023-02-28T11:35:36;4.20;1.00
4699;DHT22;33708;49.466;11.176;2023-02-28T11:38:12;3.70;1.00
4699;DHT22;33708;49.466;11.176;2023-02-28T11:40:54;4.30;1.00
4699;DHT22;33708;49.466;11.176;2023-02-28T11:43:49;3.90;1.00
4699;DHT22;33708;49.466;11.176;2023-02-28T11:46:35;4.20;1.00
4699;DHT22;33708;49.466;11.176;2023-02-28T11:49:27;5.00;1.00
4699;DHT22;33708;49.466;11.176;2023-02-28T11:52:19;4.70;1.00
4699;DHT22;33708;49.466;11.176;2023-02-28T11:57:35;4.40;1.00
4699;DHT22;33708;49.466;11.176;2023-02-28T12:00:38;4.30;1.00
4699;DHT22;33708;49.466;11.176;2023-02-28T12:03:22;4.50;1.00
4699;DHT22;33708;49.466;11.176;2023-02-28T12:08:53;4.40;1.00
4699;DHT22;33708;49.466;11.176;2023-02-28T12:11:34;5.00;1.00
4699;DHT22;33708;49.466;11.176;2023-02-28T12:17:25;4.70;1.00
4699;DHT22;33708;49.466;11.176;2023-02-28T12:28:44;5.00;1.00
4699;DHT22;33708;49.466;11.176;2023-02-28T12:31:49;5.30;1.00
4699;DHT22;33708;49.466;11.176;2023-02-28T12:34:20;4.80;1.00
4699;DHT22;33708;49.466;11.176;2023-02-28T12:36:50;5.20;1.00
4699;DHT22;33708;49.466;11.176;2023-02-28T12:39:26;4.90;1.00
4699;DHT22;33708;49.466;11.176;2023-02-28T12:42:01;4.50;1.00
4699;DHT22;33708;49.466;11.176;2023-02-28T12:44:54;5.10;1.00
4699;DHT22;33708;49.466;11.176;2023-02-28T12:47:21;5.00;1.00
4699;DHT22;33708;49.466;11.176;2023-02-28T12:49:54;4.80;1.00
4699;DHT22;33708;49.466;11.176;2023-02-28T12:52:31;4.70;1.00
4699;DHT22;33708;49.466;11.176;2023-02-28T12:55:18;4.50;1.00
4699;DHT22;33708;49.466;11.176;2023-02-28T13:00:38;4.40;1.00
4699;DHT22;33708;49.466;11.176;2023-02-28T13:03:32;4.50;1.00
4699;DHT22;33708;49.466;11.176;2023-02-28T13:09:08;4.60;1.00
4699;DHT22;33708;49.466;11.176;2023-02-28T13:14:36;4.70;1.00
4699;DHT22;33708;49.466;11.176;2023-02-28T13:17:10;4.90;1.00
4699;DHT22;33708;49.466;11.176;2023-02-28T13:22:41;4.70;1.00
4699;DHT22;33708;49.466;11.176;2023-02-28T13:25:49;4.60;1.00
4699;DHT22;33708;49.466;11.176;2023-02-28T13:28:13;5.10;1.00
4699;DHT22;33708;49.466;11.176;2023-02-28T13:31:05;5.00;1.00
4699;DHT22;33708;49.466;11.176;2023-02-28T13:33:35;5.10;1.00
4699;DHT22;33708;49.466;11.176;2023-02-28T13:38:43;5.00;1.00
4699;DHT22;33708;49.466;11.176;2023-02-28T13:47:18;5.10;1.00
4699;DHT22;33708;49.466;11.176;2023-02-28T13:51:52;5.20;1.00
4699;DHT22;33708;49.466;11.176;2023-02-28T14:08:55;5.50;1.00
4699;DHT22;33708;49.466;11.176;2023-02-28T14:11:42;5.20;1.00
4699;DHT22;33708;49.466;11.176;2023-02-28T14:14:09;5.30;1.00
4699;DHT22;33708;49.466;11.176;2023-02-28T14:16:57;5.50;1.00
4699;DHT22;33708;49.466;11.176;2023-02-28T14:19:32;4.90;1.00
4699;DHT22;33708;49.466;11.176;2023-02-28T14:27:56;5.30;1.00
4699;DHT22;33708;49.466;11.176;2023-02-28T14:30:39;5.10;1.00
4699;DHT22;33708;49.466;11.176;2023-02-28T14:33:26;4.80;1.00
4699;DHT22;33708;49.466;11.176;2023-02-28T14:36:23;5.00;1.00
4699;DHT22;33708;49.466;11.176;2023-02-28T14:39:05;5.10;1.00
4699;DHT22;33708;49.466;11.176;2023-02-28T14:41:36;5.10;1.00
4699;DHT22;33708;49.466;11.176;2023-02-28T14:44:16;5.10;1.00
4699;DHT22;33708;49.466;11.176;2023-02-28T14:46:44;5.10;1.00
4699;DHT22;33708;49.466;11.176;2023-02-28T14:49:27;5.00;1.00
4699;DHT22;33708;49.466;11.176;2023-02-28T14:52:19;4.90;1.00
4699;DHT22;33708;49.466;11.176;2023-02-28T14:54:56;4.90;1.00
4699;DHT22;33708;49.466;11.176;2023-02-28T14:57:55;5.00;1.00
4699;DHT22;33708;49.466;11.176;2023-02-28T15:00:29;5.00;1.00
4699;DHT22;33708;49.466;11.176;2023-02-28T15:03:00;4.90;1.00
4699;DHT22;33708;49.466;11.176;2023-02-28T15:05:47;4.80;1.00
4699;DHT22;33708;49.466;11.176;2023-02-28T15:08:26;4.90;1.00
4699;DHT22;33708;49.466;11.176;2023-02-28T15:11:13;5.10;1.00
4699;DHT22;33708;49.466;11.176;2023-02-28T15:13:50;5.00;1.00
4699;DHT22;33708;49.466;11.176;2023-02-28T15:16:28;4.90;1.00
4699;DHT22;33708;49.466;11.176;2023-02-28T15:19:00;5.20;1.00
4699;DHT22;33708;49.466;11.176;2023-02-28T15:21:42;4.70;1.00
4699;DHT22;33708;49.466;11.176;2023-02-28T15:24:31;4.60;1.00
4699;DHT22;33708;49.466;11.176;2023-02-28T15:27:15;4.50;1.00
4699;DHT22;33708;49.466;11.176;2023-02-28T15:29:49;4.80;1.00
4699;DHT22;33708;49.466;11.176;2023-02-28T15:32:29;4.50;1.00
4699;DHT22;33708;49.466;11.176;2023-02-28T15:38:13;4.30;1.00
4699;DHT22;33708;49.466;11.176;2023-02-28T15:43:17;4.10;1.00
4699;DHT22;33708;49.466;11.176;2023-02-28T15:45:50;4.20;1.00
4699;DHT22;33708;49.466;11.176;2023-02-28T15:50:56;4.00;1.00
4699;DHT22;33708;49.466;11.176;2023-02-28T15:53:36;4.10;1.00
4699;DHT22;33708;49.466;11.176;2023-02-28T15:56:20;4.10;1.00
4699;DHT22;33708;49.466;11.176;2023-02-28T15:59:42;4.10;1.00
4699;DHT22;33708;49.466;11.176;2023-02-28T16:01:44;3.60;1.00
4699;DHT22;33708;49.466;11.176;2023-02-28T16:04:21;3.80;1.00
4699;DHT22;33708;49.466;11.176;2023-02-28T16:09:20;3.50;1.00
4699;DHT22;33708;49.466;11.176;2023-02-28T16:11:48;3.50;1.00
4699;DHT22;33708;49.466;11.176;2023-02-28T16:14:25;3.70;1.00
4699;DHT22;33708;49.466;11.176;2023-02-28T16:17:06;3.50;1.00
4699;DHT22;33708;49.466;11.176;2023-02-28T16:19:36;3.20;1.00
4699;DHT22;33708;49.466;11.176;2023-02-28T16:22:04;3.10;1.00
4699;DHT22;33708;49.466;11.176;2023-02-28T16:24:35;3.40;1.00
4699;DHT22;33708;49.466;11.176;2023-02-28T16:27:35;2.80;1.00
4699;DHT22;33708;49.466;11.176;2023-02-28T16:30:09;2.90;1.00
4699;DHT22;33708;49.466;11.176;2023-02-28T16:32:54;2.60;1.00
4699;DHT22;33708;49.466;11.176;2023-02-28T16:35:24;2.70;1.00
4699;DHT22;33708;49.466;11.176;2023-02-28T16:37:57;2.70;1.00
4699;DHT22;33708;49.466;11.176;2023-02-28T16:40:26;2.70;1.00
4699;DHT22;33708;49.466;11.176;2023-02-28T16:42:58;2.70;1.00
4699;DHT22;33708;49.466;11.176;2023-02-28T16:45:26;2.50;1.00
4699;DHT22;33708;49.466;11.176;2023-02-28T16:47:53;2.80;1.00
4699;DHT22;33708;49.466;11.176;2023-02-28T16:50:24;2.40;1.00
4699;DHT22;33708;49.466;11.176;2023-02-28T16:52:51;2.40;1.00
4699;DHT22;33708;49.466;11.176;2023-02-28T16:55:26;2.80;1.00
4699;DHT22;33708;49.466;11.176;2023-02-28T16:57:53;2.30;1.00
4699;DHT22;33708;49.466;11.176;2023-02-28T17:06:34;2.00;1.00
4699;DHT22;33708;49.466;11.176;2023-02-28T17:09:03;2.00;1.00
4699;DHT22;33708;49.466;11.176;2023-02-28T17:11:34;2.60;1.00
4699;DHT22;33708;49.466;11.176;2023-02-28T17:14:00;2.00;1.00
4699;DHT22;33708;49.466;11.176;2023-02-28T17:16:30;2.20;1.00
4699;DHT22;33708;49.466;11.176;2023-02-28T17:19:04;2.10;1.00
4699;DHT22;33708;49.466;11.176;2023-02-28T17:21:31;1.70;1.00
4699;DHT22;33708;49.466;11.176;2023-02-28T17:23:58;1.60;1.00
4699;DHT22;33708;49.466;11.176;2023-02-28T17:26:25;1.70;1.00
4699;DHT22;33708;49.466;11.176;2023-02-28T17:28:52;1.80;1.00
4699;DHT22;33708;49.466;11.176;2023-02-28T17:31:23;1.50;1.00
4699;DHT22;33708;49.466;11.176;2023-02-28T17:33:49;1.50;1.00
4699;DHT22;33708;49.466;11.176;2023-02-28T17:36:22;1.40;1.00
4699;DHT22;33708;49.466;11.176;2023-02-28T17:38:51;1.40;1.00
4699;DHT22;33708;49.466;11.176;2023-02-28T17:41:17;1.30;1.00
4699;DHT22;33708;49.466;11.176;2023-02-28T17:43:46;1.30;1.00
4699;DHT22;33708;49.466;11.176;2023-02-28T17:46:16;1.20;1.00
4699;DHT22;33708;49.466;11.176;2023-02-28T17:48:43;1.10;1.00
4699;DHT22;33708;49.466;11.176;2023-02-28T17:51:12;1.10;1.00
4699;DHT22;33708;49.466;11.176;2023-02-28T17:53:38;1.00;1.00
4699;DHT22;33708;49.466;11.176;2023-02-28T17:56:05;1.00;1.00
4699;DHT22;33708;49.466;11.176;2023-02-28T17:58:30;0.90;1.00
4699;DHT22;33708;49.466;11.176;2023-02-28T18:00:57;0.80;1.00
4699;DHT22;33708;49.466;11.176;2023-02-28T18:03:22;0.70;1.00
4699;DHT22;33708;49.466;11.176;2023-02-28T18:05:49;0.60;1.00
4699;DHT22;33708;49.466;11.176;2023-02-28T18:08:15;0.60;1.00
4699;DHT22;33708;49.466;11.176;2023-02-28T18:10:41;0.60;1.00
4699;DHT22;33708;49.466;11.176;2023-02-28T18:13:07;0.60;1.00
4699;DHT22;33708;49.466;11.176;2023-02-28T18:15:33;0.60;1.00
4699;DHT22;33708;49.466;11.176;2023-02-28T18:17:59;0.40;1.00
4699;DHT22;33708;49.466;11.176;2023-02-28T18:20:24;0.40;1.00
4699;DHT22;33708;49.466;11.176;2023-02-28T18:22:53;0.20;1.00
4699;DHT22;33708;49.466;11.176;2023-02-28T18:25:19;0.20;1.00
4699;DHT22;33708;49.466;11.176;2023-02-28T18:27:45;0.10;1.00
4699;DHT22;33708;49.466;11.176;2023-02-28T18:30:30;0.00;1.00
4699;DHT22;33708;49.466;11.176;2023-02-28T18:32:58;0.20;1.00
4699;DHT22;33708;49.466;11.176;2023-02-28T18:35:24;-0.10;1.00
4699;DHT22;33708;49.466;11.176;2023-02-28T18:38:02;-0.30;1.00